Red Diamond — A8UM9 — position and weather

sailwx.info

Track history (hours):
 
Tides and Currents Weather Stations Pressure Air Temp Water Temp Dewpoint Dewpoint Depression Visibility Wind Speed Wind Dir Waves Ship Positions

Red Diamond

Last reported at 2016-Feb-08 17:24 UTC. Time now 2016-Feb-10 08:42 UTC.
Position N 22°52' E 119°31'.

Length 190 m; draft 7 m.

Type: Cargo ship. MMSI: 636014524.

Date/timePositionNaut miles runAvg speedWind from/ knotsBaromVisibWave heightAir tempDewpointWater temp
2016-Feb-08 17:24N 22°52' E 119°31'8 9.8
2016-Feb-08 16:33N 22°59' E 119°37'10 9.6
2016-Feb-08 15:33N 23°06' E 119°43'118 8.9
2016-Feb-08 02:21N 24°58' E 120°25'367 8.9
2016-Feb-06 09:08N 30°39' E 122°58'710.5
2016-Feb-06 08:30N 30°45' E 122°54'6410.8
2016-Feb-06 02:31N 31°17' E 121°49'10 9.9
2016-Feb-06 01:33N 31°21' E 121°38'2 1.1
2016-Feb-05 23:30N 31°22' E 121°36'0 0.0
2016-Feb-05 22:30N 31°22' E 121°36'0 0.0
2016-Feb-05 21:18N 31°22' E 121°36'0 0.0
2016-Feb-05 20:30N 31°22' E 121°36'0 0.0
2016-Feb-05 19:18N 31°22' E 121°36'0 0.0
2016-Feb-05 18:24N 31°22' E 121°36'0 0.0
2016-Feb-05 17:24N 31°22' E 121°36'0 0.0
2016-Feb-05 14:15N 31°22' E 121°36'0 0.0
2016-Feb-05 13:24N 31°22' E 121°36'0 0.0
2016-Feb-05 12:24N 31°22' E 121°36'0 0.0
2016-Feb-05 11:33N 31°22' E 121°36'0 0.0
2016-Feb-05 10:27N 31°22' E 121°36'0 0.0
2016-Feb-05 09:30N 31°22' E 121°36'0 0.0
2016-Feb-05 08:30N 31°22' E 121°36'0 0.0
2016-Feb-05 07:27N 31°22' E 121°36'0 0.0
2016-Feb-05 06:30N 31°22' E 121°36'0 0.0
2016-Feb-05 05:12N 31°22' E 121°36'0 0.0
2016-Feb-05 00:24N 31°22' E 121°36'0 0.0
2016-Feb-04 23:24N 31°22' E 121°36'0 0.0
2016-Feb-04 22:18N 31°22' E 121°36'0 0.0
2016-Feb-04 21:12N 31°22' E 121°36'0 0.0
2016-Feb-04 20:24N 31°22' E 121°36'0 0.0
2016-Feb-04 19:33N 31°22' E 121°36'0 0.0
2016-Feb-04 18:30N 31°22' E 121°36'0 0.0
2016-Feb-04 17:30N 31°22' E 121°36'0 0.0
2016-Feb-04 16:33N 31°22' E 121°36'0 0.0
2016-Feb-04 15:24N 31°22' E 121°36'0 0.0
2016-Feb-04 14:30N 31°22' E 121°36'0 0.0
2016-Feb-04 13:24N 31°22' E 121°36'0 0.0
2016-Feb-04 12:12N 31°22' E 121°36'0 0.0
2016-Feb-04 11:18N 31°22' E 121°36'0 0.0
2016-Feb-04 09:24N 31°22' E 121°36'0 0.0
2016-Feb-04 08:30N 31°22' E 121°36'0 0.0
2016-Feb-04 07:30N 31°22' E 121°36'0 0.0
2016-Feb-04 06:18N 31°22' E 121°36'0 0.0
2016-Feb-04 05:30N 31°22' E 121°36'0 0.0
2016-Feb-04 04:18N 31°22' E 121°36'0 0.0
2016-Feb-04 00:12N 31°22' E 121°36'0 0.0
2016-Feb-03 23:18N 31°22' E 121°36'0 0.0
2016-Feb-03 21:12N 31°22' E 121°36'0 0.0
2016-Feb-03 20:18N 31°22' E 121°36'0 0.0
2016-Feb-03 19:30N 31°22' E 121°36'0 0.0
2016-Feb-03 18:24N 31°22' E 121°36'0 0.0
2016-Feb-03 17:30N 31°22' E 121°36'0 0.0
2016-Feb-03 16:30N 31°22' E 121°36'0 0.0
2016-Feb-03 15:24N 31°22' E 121°36'0 0.0
2016-Feb-03 14:30N 31°22' E 121°36'0 0.0
2016-Feb-03 12:24N 31°22' E 121°36'0 0.0
2016-Feb-03 11:18N 31°22' E 121°36'0 0.0
2016-Feb-03 10:24N 31°22' E 121°36'0 0.0
2016-Feb-03 09:24N 31°22' E 121°36'0 0.0
2016-Feb-03 08:12N 31°22' E 121°36'0 0.0
2016-Feb-03 07:21N 31°22' E 121°36'0 0.0
2016-Feb-03 06:30N 31°22' E 121°36'0 0.0
2016-Feb-03 05:24N 31°22' E 121°36'0 0.0
2016-Feb-03 04:30N 31°22' E 121°36'0 0.0
2016-Feb-03 03:18N 31°22' E 121°36'0 0.0
2016-Feb-03 02:30N 31°22' E 121°36'0 0.0
2016-Feb-03 00:24N 31°22' E 121°36'0 0.0
2016-Feb-02 23:30N 31°22' E 121°36'0 0.0
2016-Feb-02 22:30N 31°22' E 121°36'0 0.0
2016-Feb-02 21:30N 31°22' E 121°36'0 0.0
2016-Feb-02 20:24N 31°22' E 121°36'0 0.0
2016-Feb-02 19:24N 31°22' E 121°36'0 0.0
2016-Feb-02 18:18N 31°22' E 121°36'0 0.0
2016-Feb-02 17:30N 31°22' E 121°36'0 0.0
2016-Feb-02 16:24N 31°22' E 121°36'0 0.0
2016-Feb-02 15:18N 31°22' E 121°36'0 0.0
2016-Feb-02 13:24N 31°22' E 121°36'0 0.0
2016-Feb-02 12:30N 31°22' E 121°36'0 0.0
2016-Feb-02 11:30N 31°22' E 121°36'0 0.1
2016-Feb-02 10:32N 31°22' E 121°36'5 4.9
2016-Feb-02 09:33N 31°20' E 121°41'  
Track history (hours):
 
Tides and Currents Weather Stations Pressure Air Temp Water Temp Dewpoint Dewpoint Depression Visibility Wind Speed Wind Dir Waves Ship Positions

Red Diamond

Last reported at 2016-Feb-08 17:24 UTC. Time now 2016-Feb-10 08:42 UTC.
Position N 22°52' E 119°31'.

Length 190 m; draft 7 m.

Type: Cargo ship. MMSI: 636014524.

Date/timePositionNaut miles runAvg speedWind from/ knotsBaromVisibWave heightAir tempDewpointWater temp
2016-Feb-08 17:24N 22°52' E 119°31'8 9.8
2016-Feb-08 16:33N 22°59' E 119°37'10 9.6
2016-Feb-08 15:33N 23°06' E 119°43'118 8.9
2016-Feb-08 02:21N 24°58' E 120°25'367 8.9
2016-Feb-06 09:08N 30°39' E 122°58'710.5
2016-Feb-06 08:30N 30°45' E 122°54'6410.8
2016-Feb-06 02:31N 31°17' E 121°49'10 9.9
2016-Feb-06 01:33N 31°21' E 121°38'2 1.1
2016-Feb-05 23:30N 31°22' E 121°36'0 0.0
2016-Feb-05 22:30N 31°22' E 121°36'0 0.0
2016-Feb-05 21:18N 31°22' E 121°36'0 0.0
2016-Feb-05 20:30N 31°22' E 121°36'0 0.0
2016-Feb-05 19:18N 31°22' E 121°36'0 0.0
2016-Feb-05 18:24N 31°22' E 121°36'0 0.0
2016-Feb-05 17:24N 31°22' E 121°36'0 0.0
2016-Feb-05 14:15N 31°22' E 121°36'0 0.0
2016-Feb-05 13:24N 31°22' E 121°36'0 0.0
2016-Feb-05 12:24N 31°22' E 121°36'0 0.0
2016-Feb-05 11:33N 31°22' E 121°36'0 0.0
2016-Feb-05 10:27N 31°22' E 121°36'0 0.0
2016-Feb-05 09:30N 31°22' E 121°36'0 0.0
2016-Feb-05 08:30N 31°22' E 121°36'0 0.0
2016-Feb-05 07:27N 31°22' E 121°36'0 0.0
2016-Feb-05 06:30N 31°22' E 121°36'0 0.0
2016-Feb-05 05:12N 31°22' E 121°36'0 0.0
2016-Feb-05 00:24N 31°22' E 121°36'0 0.0
2016-Feb-04 23:24N 31°22' E 121°36'0 0.0
2016-Feb-04 22:18N 31°22' E 121°36'0 0.0
2016-Feb-04 21:12N 31°22' E 121°36'0 0.0
2016-Feb-04 20:24N 31°22' E 121°36'0 0.0
2016-Feb-04 19:33N 31°22' E 121°36'0 0.0
2016-Feb-04 18:30N 31°22' E 121°36'0 0.0
2016-Feb-04 17:30N 31°22' E 121°36'0 0.0
2016-Feb-04 16:33N 31°22' E 121°36'0 0.0
2016-Feb-04 15:24N 31°22' E 121°36'0 0.0
2016-Feb-04 14:30N 31°22' E 121°36'0 0.0
2016-Feb-04 13:24N 31°22' E 121°36'0 0.0
2016-Feb-04 12:12N 31°22' E 121°36'0 0.0
2016-Feb-04 11:18N 31°22' E 121°36'0 0.0
2016-Feb-04 09:24N 31°22' E 121°36'0 0.0
2016-Feb-04 08:30N 31°22' E 121°36'0 0.0
2016-Feb-04 07:30N 31°22' E 121°36'0 0.0
2016-Feb-04 06:18N 31°22' E 121°36'0 0.0
2016-Feb-04 05:30N 31°22' E 121°36'0 0.0
2016-Feb-04 04:18N 31°22' E 121°36'0 0.0
2016-Feb-04 00:12N 31°22' E 121°36'0 0.0
2016-Feb-03 23:18N 31°22' E 121°36'0 0.0
2016-Feb-03 21:12N 31°22' E 121°36'0 0.0
2016-Feb-03 20:18N 31°22' E 121°36'0 0.0
2016-Feb-03 19:30N 31°22' E 121°36'0 0.0
2016-Feb-03 18:24N 31°22' E 121°36'0 0.0
2016-Feb-03 17:30N 31°22' E 121°36'0 0.0
2016-Feb-03 16:30N 31°22' E 121°36'0 0.0
2016-Feb-03 15:24N 31°22' E 121°36'0 0.0
2016-Feb-03 14:30N 31°22' E 121°36'0 0.0
2016-Feb-03 12:24N 31°22' E 121°36'0 0.0
2016-Feb-03 11:18N 31°22' E 121°36'0 0.0
2016-Feb-03 10:24N 31°22' E 121°36'0 0.0
2016-Feb-03 09:24N 31°22' E 121°36'0 0.0
2016-Feb-03 08:12N 31°22' E 121°36'0 0.0
2016-Feb-03 07:21N 31°22' E 121°36'0 0.0
2016-Feb-03 06:30N 31°22' E 121°36'0 0.0
2016-Feb-03 05:24N 31°22' E 121°36'0 0.0
2016-Feb-03 04:30N 31°22' E 121°36'0 0.0
2016-Feb-03 03:18N 31°22' E 121°36'0 0.0
2016-Feb-03 02:30N 31°22' E 121°36'0 0.0
2016-Feb-03 00:24N 31°22' E 121°36'0 0.0
2016-Feb-02 23:30N 31°22' E 121°36'0 0.0
2016-Feb-02 22:30N 31°22' E 121°36'0 0.0
2016-Feb-02 21:30N 31°22' E 121°36'0 0.0
2016-Feb-02 20:24N 31°22' E 121°36'0 0.0
2016-Feb-02 19:24N 31°22' E 121°36'0 0.0
2016-Feb-02 18:18N 31°22' E 121°36'0 0.0
2016-Feb-02 17:30N 31°22' E 121°36'0 0.0
2016-Feb-02 16:24N 31°22' E 121°36'0 0.0
2016-Feb-02 15:18N 31°22' E 121°36'0 0.0
2016-Feb-02 13:24N 31°22' E 121°36'0 0.0
2016-Feb-02 12:30N 31°22' E 121°36'0 0.0
2016-Feb-02 11:30N 31°22' E 121°36'0 0.1
2016-Feb-02 10:32N 31°22' E 121°36'5 4.9
2016-Feb-02 09:33N 31°20' E 121°41'  

Dump ship's entire track history